sensor_id;sensor_type;location;lat;lon;timestamp;pressure;altitude;pressure_sealevel;temperature;humidity
4814;BME280;15375;48.540;9.268;2023-09-19T00:00:23;97044.94;;;16.03;100.00
4814;BME280;15375;48.540;9.268;2023-09-19T00:02:55;97031.63;;;16.02;100.00
4814;BME280;15375;48.540;9.268;2023-09-19T00:05:28;97012.97;;;15.96;100.00
4814;BME280;15375;48.540;9.268;2023-09-19T00:07:55;97044.75;;;16.16;100.00
4814;BME280;15375;48.540;9.268;2023-09-19T00:10:25;97024.44;;;16.04;100.00
4814;BME280;15375;48.540;9.268;2023-09-19T00:12:53;97043.69;;;16.13;100.00
4814;BME280;15375;48.540;9.268;2023-09-19T00:15:22;97023.38;;;15.92;100.00
4814;BME280;15375;48.540;9.268;2023-09-19T00:17:48;97048.72;;;16.15;100.00
4814;BME280;15375;48.540;9.268;2023-09-19T00:20:14;97047.50;;;16.16;100.00
4814;BME280;15375;48.540;9.268;2023-09-19T00:22:42;96958.34;;;15.62;100.00
4814;BME280;15375;48.540;9.268;2023-09-19T00:25:08;97021.53;;;15.98;100.00
4814;BME280;15375;48.540;9.268;2023-09-19T00:27:35;97045.81;;;16.18;100.00
4814;BME280;15375;48.540;9.268;2023-09-19T00:30:00;97036.50;;;16.16;100.00
4814;BME280;15375;48.540;9.268;2023-09-19T00:32:26;97034.81;;;16.18;100.00
4814;BME280;15375;48.540;9.268;2023-09-19T00:34:57;97016.19;;;16.04;100.00
4814;BME280;15375;48.540;9.268;2023-09-19T00:37:22;97032.69;;;16.13;100.00
4814;BME280;15375;48.540;9.268;2023-09-19T00:39:48;97038.94;;;16.23;100.00
4814;BME280;15375;48.540;9.268;2023-09-19T00:42:20;97023.19;;;16.14;100.00
4814;BME280;15375;48.540;9.268;2023-09-19T00:44:46;97037.09;;;16.20;100.00
4814;BME280;15375;48.540;9.268;2023-09-19T00:47:12;96969.94;;;15.75;100.00
4814;BME280;15375;48.540;9.268;2023-09-19T00:49:41;97021.69;;;15.95;100.00
4814;BME280;15375;48.540;9.268;2023-09-19T00:52:07;97036.34;;;16.01;100.00
4814;BME280;15375;48.540;9.268;2023-09-19T00:54:35;97035.00;;;16.06;100.00
4814;BME280;15375;48.540;9.268;2023-09-19T00:57:01;97056.81;;;16.18;100.00
4814;BME280;15375;48.540;9.268;2023-09-19T00:59:27;97049.63;;;16.21;100.00
4814;BME280;15375;48.540;9.268;2023-09-19T01:01:54;97045.50;;;16.16;100.00
4814;BME280;15375;48.540;9.268;2023-09-19T01:04:21;97022.47;;;15.95;100.00
4814;BME280;15375;48.540;9.268;2023-09-19T01:06:47;97019.88;;;15.92;100.00
4814;BME280;15375;48.540;9.268;2023-09-19T01:09:17;97042.91;;;16.13;100.00
4814;BME280;15375;48.540;9.268;2023-09-19T01:11:46;97042.00;;;16.16;100.00
4814;BME280;15375;48.540;9.268;2023-09-19T01:14:24;97042.28;;;16.09;100.00
4814;BME280;15375;48.540;9.268;2023-09-19T01:17:09;97050.69;;;16.14;100.00
4814;BME280;15375;48.540;9.268;2023-09-19T01:23:06;97053.13;;;16.21;100.00
4814;BME280;15375;48.540;9.268;2023-09-19T01:29:01;97058.50;;;16.16;100.00
4814;BME280;15375;48.540;9.268;2023-09-19T01:31:33;97043.53;;;15.98;100.00
4814;BME280;15375;48.540;9.268;2023-09-19T01:34:02;97058.97;;;16.14;100.00
4814;BME280;15375;48.540;9.268;2023-09-19T01:36:32;97045.06;;;16.00;100.00
4814;BME280;15375;48.540;9.268;2023-09-19T01:39:04;97056.97;;;16.15;100.00
4814;BME280;15375;48.540;9.268;2023-09-19T01:41:58;97062.47;;;16.15;100.00
4814;BME280;15375;48.540;9.268;2023-09-19T01:47:34;97054.72;;;15.95;100.00
4814;BME280;15375;48.540;9.268;2023-09-19T01:50:34;97059.88;;;16.02;100.00
4814;BME280;15375;48.540;9.268;2023-09-19T01:53:33;97083.88;;;16.11;100.00
4814;BME280;15375;48.540;9.268;2023-09-19T01:56:01;97068.63;;;16.01;100.00
4814;BME280;15375;48.540;9.268;2023-09-19T01:58:35;97081.75;;;16.06;100.00
4814;BME280;15375;48.540;9.268;2023-09-19T02:01:04;97091.22;;;16.05;100.00
4814;BME280;15375;48.540;9.268;2023-09-19T02:03:31;97087.84;;;15.91;100.00
4814;BME280;15375;48.540;9.268;2023-09-19T02:05:58;97092.88;;;15.84;100.00
4814;BME280;15375;48.540;9.268;2023-09-19T02:08:24;97098.72;;;15.95;100.00
4814;BME280;15375;48.540;9.268;2023-09-19T02:10:49;97091.66;;;15.94;100.00
4814;BME280;15375;48.540;9.268;2023-09-19T02:13:16;97077.47;;;15.77;100.00
4814;BME280;15375;48.540;9.268;2023-09-19T02:15:42;97108.03;;;15.98;100.00
4814;BME280;15375;48.540;9.268;2023-09-19T02:18:09;97089.69;;;15.76;100.00
4814;BME280;15375;48.540;9.268;2023-09-19T02:20:35;97107.09;;;15.91;100.00
4814;BME280;15375;48.540;9.268;2023-09-19T02:23:00;97105.25;;;15.88;100.00
4814;BME280;15375;48.540;9.268;2023-09-19T02:25:27;97089.97;;;15.78;100.00
4814;BME280;15375;48.540;9.268;2023-09-19T02:27:53;97122.53;;;15.89;100.00
4814;BME280;15375;48.540;9.268;2023-09-19T02:30:19;97128.97;;;15.95;100.00
4814;BME280;15375;48.540;9.268;2023-09-19T02:32:48;97122.09;;;15.90;100.00
4814;BME280;15375;48.540;9.268;2023-09-19T02:35:14;97141.94;;;15.94;100.00
4814;BME280;15375;48.540;9.268;2023-09-19T02:37:41;97099.44;;;15.68;100.00
4814;BME280;15375;48.540;9.268;2023-09-19T02:40:07;97115.81;;;15.81;100.00
4814;BME280;15375;48.540;9.268;2023-09-19T02:42:46;97114.72;;;15.69;100.00
4814;BME280;15375;48.540;9.268;2023-09-19T02:45:14;97124.81;;;15.72;100.00
4814;BME280;15375;48.540;9.268;2023-09-19T02:47:40;97115.03;;;15.62;100.00
4814;BME280;15375;48.540;9.268;2023-09-19T02:50:06;97109.66;;;15.59;100.00
4814;BME280;15375;48.540;9.268;2023-09-19T02:52:31;97117.59;;;15.57;100.00
4814;BME280;15375;48.540;9.268;2023-09-19T02:54:57;97113.31;;;15.56;100.00
4814;BME280;15375;48.540;9.268;2023-09-19T02:57:22;97120.81;;;15.55;100.00
4814;BME280;15375;48.540;9.268;2023-09-19T02:59:49;97119.28;;;15.54;100.00
4814;BME280;15375;48.540;9.268;2023-09-19T03:02:15;97121.25;;;15.54;100.00
4814;BME280;15375;48.540;9.268;2023-09-19T03:04:41;97137.31;;;15.55;100.00
4814;BME280;15375;48.540;9.268;2023-09-19T03:07:06;97131.06;;;15.55;100.00
4814;BME280;15375;48.540;9.268;2023-09-19T03:09:32;97128.91;;;15.50;100.00
4814;BME280;15375;48.540;9.268;2023-09-19T03:11:57;97129.81;;;15.47;100.00
4814;BME280;15375;48.540;9.268;2023-09-19T03:14:24;97103.31;;;15.31;100.00
4814;BME280;15375;48.540;9.268;2023-09-19T03:16:50;97136.97;;;15.53;100.00
4814;BME280;15375;48.540;9.268;2023-09-19T03:19:17;97126.00;;;15.53;100.00
4814;BME280;15375;48.540;9.268;2023-09-19T03:21:43;97126.31;;;15.55;100.00
4814;BME280;15375;48.540;9.268;2023-09-19T03:24:08;97122.03;;;15.54;100.00
4814;BME280;15375;48.540;9.268;2023-09-19T03:26:33;97123.56;;;15.64;100.00
4814;BME280;15375;48.540;9.268;2023-09-19T03:28:59;97130.94;;;15.67;100.00
4814;BME280;15375;48.540;9.268;2023-09-19T03:31:24;97133.50;;;15.71;100.00
4814;BME280;15375;48.540;9.268;2023-09-19T03:33:50;97132.13;;;15.66;100.00
4814;BME280;15375;48.540;9.268;2023-09-19T03:36:15;97131.09;;;15.73;100.00
4814;BME280;15375;48.540;9.268;2023-09-19T03:38:40;97125.72;;;15.69;100.00
4814;BME280;15375;48.540;9.268;2023-09-19T03:41:06;97113.78;;;15.54;100.00
4814;BME280;15375;48.540;9.268;2023-09-19T03:43:32;97138.56;;;15.72;100.00
4814;BME280;15375;48.540;9.268;2023-09-19T03:46:01;97114.41;;;15.58;100.00
4814;BME280;15375;48.540;9.268;2023-09-19T03:48:29;97125.25;;;15.62;100.00
4814;BME280;15375;48.540;9.268;2023-09-19T03:50:54;97132.00;;;15.70;100.00
4814;BME280;15375;48.540;9.268;2023-09-19T03:53:21;97136.00;;;15.78;100.00
4814;BME280;15375;48.540;9.268;2023-09-19T03:55:47;97113.19;;;15.59;100.00
4814;BME280;15375;48.540;9.268;2023-09-19T03:58:12;97144.06;;;15.72;100.00
4814;BME280;15375;48.540;9.268;2023-09-19T04:00:38;97100.66;;;15.49;100.00
4814;BME280;15375;48.540;9.268;2023-09-19T04:03:04;97132.44;;;15.59;100.00
4814;BME280;15375;48.540;9.268;2023-09-19T04:05:31;97114.84;;;15.48;100.00
4814;BME280;15375;48.540;9.268;2023-09-19T04:07:58;97148.31;;;15.64;100.00
4814;BME280;15375;48.540;9.268;2023-09-19T04:10:23;97159.78;;;15.72;100.00
4814;BME280;15375;48.540;9.268;2023-09-19T04:12:52;97152.75;;;15.62;100.00
4814;BME280;15375;48.540;9.268;2023-09-19T04:15:18;97148.63;;;15.66;100.00
4814;BME280;15375;48.540;9.268;2023-09-19T04:17:44;97145.72;;;15.61;100.00
4814;BME280;15375;48.540;9.268;2023-09-19T04:20:09;97113.56;;;15.30;100.00
4814;BME280;15375;48.540;9.268;2023-09-19T04:22:37;97125.38;;;15.49;100.00
4814;BME280;15375;48.540;9.268;2023-09-19T04:25:04;97130.09;;;15.49;100.00
4814;BME280;15375;48.540;9.268;2023-09-19T04:27:29;97146.78;;;15.54;100.00
4814;BME280;15375;48.540;9.268;2023-09-19T04:29:54;97116.44;;;15.27;100.00
4814;BME280;15375;48.540;9.268;2023-09-19T04:32:24;97131.44;;;15.35;100.00
4814;BME280;15375;48.540;9.268;2023-09-19T04:34:49;97126.53;;;15.30;100.00
4814;BME280;15375;48.540;9.268;2023-09-19T04:37:15;97153.13;;;15.42;100.00
4814;BME280;15375;48.540;9.268;2023-09-19T04:39:41;97143.63;;;15.34;100.00
4814;BME280;15375;48.540;9.268;2023-09-19T04:42:06;97163.56;;;15.47;100.00
4814;BME280;15375;48.540;9.268;2023-09-19T04:44:31;97168.41;;;15.43;100.00
4814;BME280;15375;48.540;9.268;2023-09-19T04:46:57;97136.88;;;15.26;100.00
4814;BME280;15375;48.540;9.268;2023-09-19T04:49:22;97144.03;;;15.14;100.00
4814;BME280;15375;48.540;9.268;2023-09-19T04:51:48;97112.66;;;14.94;100.00
4814;BME280;15375;48.540;9.268;2023-09-19T04:54:13;97125.19;;;15.04;100.00
4814;BME280;15375;48.540;9.268;2023-09-19T04:56:41;97102.41;;;14.85;100.00
4814;BME280;15375;48.540;9.268;2023-09-19T04:59:06;97132.22;;;15.05;100.00
4814;BME280;15375;48.540;9.268;2023-09-19T05:01:32;97155.31;;;15.16;100.00
4814;BME280;15375;48.540;9.268;2023-09-19T05:03:57;97160.22;;;15.21;100.00
4814;BME280;15375;48.540;9.268;2023-09-19T05:06:23;97155.19;;;15.20;100.00
4814;BME280;15375;48.540;9.268;2023-09-19T05:08:49;97140.06;;;15.15;100.00
4814;BME280;15375;48.540;9.268;2023-09-19T05:11:21;97128.53;;;14.99;100.00
4814;BME280;15375;48.540;9.268;2023-09-19T05:13:47;97152.88;;;15.18;100.00
4814;BME280;15375;48.540;9.268;2023-09-19T05:16:14;97148.16;;;15.19;100.00
4814;BME280;15375;48.540;9.268;2023-09-19T05:18:41;97173.41;;;15.36;100.00
4814;BME280;15375;48.540;9.268;2023-09-19T05:21:07;97154.44;;;15.28;100.00
4814;BME280;15375;48.540;9.268;2023-09-19T05:23:33;97166.59;;;15.49;100.00
4814;BME280;15375;48.540;9.268;2023-09-19T05:25:58;97173.69;;;15.68;100.00
4814;BME280;15375;48.540;9.268;2023-09-19T05:28:25;97181.66;;;15.84;100.00
4814;BME280;15375;48.540;9.268;2023-09-19T05:30:52;97160.88;;;15.83;100.00
4814;BME280;15375;48.540;9.268;2023-09-19T05:33:18;97160.28;;;15.88;100.00
4814;BME280;15375;48.540;9.268;2023-09-19T05:35:44;97180.19;;;16.11;100.00
4814;BME280;15375;48.540;9.268;2023-09-19T05:38:12;97179.88;;;16.27;100.00
4814;BME280;15375;48.540;9.268;2023-09-19T05:40:39;97175.75;;;16.31;100.00
4814;BME280;15375;48.540;9.268;2023-09-19T05:43:07;97170.09;;;16.35;100.00
4814;BME280;15375;48.540;9.268;2023-09-19T05:45:33;97178.44;;;16.95;100.00
4814;BME280;15375;48.540;9.268;2023-09-19T05:48:13;97199.13;;;17.41;100.00
4814;BME280;15375;48.540;9.268;2023-09-19T05:50:40;97148.31;;;16.91;100.00
4814;BME280;15375;48.540;9.268;2023-09-19T05:53:05;97207.16;;;17.21;100.00
4814;BME280;15375;48.540;9.268;2023-09-19T05:55:32;97204.56;;;17.17;100.00
4814;BME280;15375;48.540;9.268;2023-09-19T05:57:57;97207.66;;;17.10;100.00
4814;BME280;15375;48.540;9.268;2023-09-19T06:00:24;97219.88;;;17.18;100.00
4814;BME280;15375;48.540;9.268;2023-09-19T06:02:53;97227.56;;;17.05;100.00
4814;BME280;15375;48.540;9.268;2023-09-19T06:05:20;97227.16;;;16.80;100.00
4814;BME280;15375;48.540;9.268;2023-09-19T06:07:45;97234.81;;;16.76;100.00
4814;BME280;15375;48.540;9.268;2023-09-19T06:10:12;97240.63;;;16.69;100.00
4814;BME280;15375;48.540;9.268;2023-09-19T06:12:47;97220.75;;;16.55;100.00
4814;BME280;15375;48.540;9.268;2023-09-19T06:15:13;97226.72;;;16.63;100.00
4814;BME280;15375;48.540;9.268;2023-09-19T06:17:51;97238.19;;;16.71;100.00
4814;BME280;15375;48.540;9.268;2023-09-19T06:20:17;97232.38;;;16.69;100.00
4814;BME280;15375;48.540;9.268;2023-09-19T06:22:45;97231.59;;;16.68;100.00
4814;BME280;15375;48.540;9.268;2023-09-19T06:25:11;97242.91;;;16.70;100.00
4814;BME280;15375;48.540;9.268;2023-09-19T06:27:40;97232.47;;;16.47;100.00
4814;BME280;15375;48.540;9.268;2023-09-19T06:30:08;97262.94;;;16.62;100.00
4814;BME280;15375;48.540;9.268;2023-09-19T06:32:34;97256.97;;;16.54;100.00
4814;BME280;15375;48.540;9.268;2023-09-19T06:34:59;97255.56;;;16.49;100.00
4814;BME280;15375;48.540;9.268;2023-09-19T06:37:29;97269.84;;;16.57;100.00
4814;BME280;15375;48.540;9.268;2023-09-19T06:39:55;97258.78;;;16.39;100.00
4814;BME280;15375;48.540;9.268;2023-09-19T06:42:21;97261.84;;;16.41;100.00
4814;BME280;15375;48.540;9.268;2023-09-19T06:44:48;97273.34;;;16.48;100.00
4814;BME280;15375;48.540;9.268;2023-09-19T06:47:13;97259.91;;;16.59;100.00
4814;BME280;15375;48.540;9.268;2023-09-19T06:49:42;97273.19;;;16.79;100.00
4814;BME280;15375;48.540;9.268;2023-09-19T06:52:09;97285.72;;;17.16;100.00
4814;BME280;15375;48.540;9.268;2023-09-19T06:54:35;97271.56;;;17.51;100.00
4814;BME280;15375;48.540;9.268;2023-09-19T06:57:01;97297.41;;;17.62;100.00
4814;BME280;15375;48.540;9.268;2023-09-19T06:59:26;97268.88;;;17.14;100.00
4814;BME280;15375;48.540;9.268;2023-09-19T07:01:52;97307.59;;;17.29;100.00
4814;BME280;15375;48.540;9.268;2023-09-19T07:04:18;97297.66;;;17.32;100.00
4814;BME280;15375;48.540;9.268;2023-09-19T07:06:49;97299.31;;;17.38;100.00
4814;BME280;15375;48.540;9.268;2023-09-19T07:09:15;97300.38;;;17.41;100.00
4814;BME280;15375;48.540;9.268;2023-09-19T07:11:40;97283.09;;;17.31;100.00
4814;BME280;15375;48.540;9.268;2023-09-19T07:14:06;97285.34;;;17.51;100.00
4814;BME280;15375;48.540;9.268;2023-09-19T07:16:31;97296.97;;;17.64;100.00
4814;BME280;15375;48.540;9.268;2023-09-19T07:18:56;97311.28;;;17.86;100.00
4814;BME280;15375;48.540;9.268;2023-09-19T07:21:23;97290.19;;;17.74;100.00
4814;BME280;15375;48.540;9.268;2023-09-19T07:23:48;97293.44;;;18.29;100.00
4814;BME280;15375;48.540;9.268;2023-09-19T07:26:15;97297.22;;;18.88;100.00
4814;BME280;15375;48.540;9.268;2023-09-19T07:28:40;97293.22;;;19.03;100.00
4814;BME280;15375;48.540;9.268;2023-09-19T07:31:05;97297.00;;;19.44;100.00
4814;BME280;15375;48.540;9.268;2023-09-19T07:33:34;97321.78;;;19.97;100.00
4814;BME280;15375;48.540;9.268;2023-09-19T07:35:59;97293.31;;;19.97;100.00
4814;BME280;15375;48.540;9.268;2023-09-19T07:38:25;97323.28;;;20.13;100.00
4814;BME280;15375;48.540;9.268;2023-09-19T07:40:52;97325.13;;;20.01;100.00
4814;BME280;15375;48.540;9.268;2023-09-19T07:43:17;97320.25;;;19.96;100.00
4814;BME280;15375;48.540;9.268;2023-09-19T07:45:43;97304.31;;;19.77;100.00
4814;BME280;15375;48.540;9.268;2023-09-19T07:48:08;97332.59;;;20.30;100.00
4814;BME280;15375;48.540;9.268;2023-09-19T07:50:39;97343.63;;;20.45;100.00
4814;BME280;15375;48.540;9.268;2023-09-19T07:53:06;97341.31;;;20.78;100.00
4814;BME280;15375;48.540;9.268;2023-09-19T07:55:31;97332.81;;;20.81;97.51
4814;BME280;15375;48.540;9.268;2023-09-19T07:57:59;97314.78;;;20.71;95.81
4814;BME280;15375;48.540;9.268;2023-09-19T08:00:24;97330.56;;;20.45;97.40
4814;BME280;15375;48.540;9.268;2023-09-19T08:02:50;97331.63;;;20.88;98.16
4814;BME280;15375;48.540;9.268;2023-09-19T08:05:17;97357.09;;;21.07;96.30
4814;BME280;15375;48.540;9.268;2023-09-19T08:07:45;97359.19;;;20.77;97.93
4814;BME280;15375;48.540;9.268;2023-09-19T08:10:14;97351.31;;;20.35;97.33
4814;BME280;15375;48.540;9.268;2023-09-19T08:12:44;97329.63;;;19.99;100.00
4814;BME280;15375;48.540;9.268;2023-09-19T08:15:20;97342.19;;;20.29;98.45
4814;BME280;15375;48.540;9.268;2023-09-19T08:17:45;97348.34;;;20.39;100.00
4814;BME280;15375;48.540;9.268;2023-09-19T08:20:12;97347.75;;;19.85;99.40
4814;BME280;15375;48.540;9.268;2023-09-19T08:22:51;97356.75;;;19.65;97.97
4814;BME280;15375;48.540;9.268;2023-09-19T08:25:18;97370.19;;;19.72;100.00
4814;BME280;15375;48.540;9.268;2023-09-19T08:27:46;97369.94;;;19.32;99.72
4814;BME280;15375;48.540;9.268;2023-09-19T08:30:17;97370.06;;;19.38;100.00
4814;BME280;15375;48.540;9.268;2023-09-19T08:32:43;97358.16;;;19.46;100.00
4814;BME280;15375;48.540;9.268;2023-09-19T08:35:10;97372.66;;;19.56;100.00
4814;BME280;15375;48.540;9.268;2023-09-19T08:37:35;97367.81;;;19.65;98.42
4814;BME280;15375;48.540;9.268;2023-09-19T08:40:01;97368.16;;;20.31;100.00
4814;BME280;15375;48.540;9.268;2023-09-19T08:42:27;97364.69;;;20.91;91.26
4814;BME280;15375;48.540;9.268;2023-09-19T08:44:52;97369.53;;;20.96;87.05
4814;BME280;15375;48.540;9.268;2023-09-19T08:47:30;97364.03;;;21.02;85.68
4814;BME280;15375;48.540;9.268;2023-09-19T08:50:11;97372.34;;;21.02;83.79
4814;BME280;15375;48.540;9.268;2023-09-19T08:52:41;97354.25;;;21.47;80.70
4814;BME280;15375;48.540;9.268;2023-09-19T08:55:11;97374.31;;;21.62;75.87
4814;BME280;15375;48.540;9.268;2023-09-19T08:57:38;97370.72;;;21.82;77.33
4814;BME280;15375;48.540;9.268;2023-09-19T09:00:07;97382.72;;;21.47;78.68
4814;BME280;15375;48.540;9.268;2023-09-19T09:02:40;97389.38;;;21.81;78.37
4814;BME280;15375;48.540;9.268;2023-09-19T09:05:08;97382.75;;;21.73;76.21
4814;BME280;15375;48.540;9.268;2023-09-19T09:07:35;97382.00;;;22.30;73.96
4814;BME280;15375;48.540;9.268;2023-09-19T09:10:02;97377.25;;;22.72;72.71
4814;BME280;15375;48.540;9.268;2023-09-19T09:12:29;97382.41;;;22.17;72.58
4814;BME280;15375;48.540;9.268;2023-09-19T09:14:54;97381.84;;;22.07;70.94
4814;BME280;15375;48.540;9.268;2023-09-19T09:17:23;97384.28;;;21.48;70.65
4814;BME280;15375;48.540;9.268;2023-09-19T09:19:52;97387.97;;;21.66;71.77
4814;BME280;15375;48.540;9.268;2023-09-19T09:22:17;97396.91;;;22.01;71.01
4814;BME280;15375;48.540;9.268;2023-09-19T09:24:53;97386.13;;;22.08;68.97
4814;BME280;15375;48.540;9.268;2023-09-19T09:27:20;97381.19;;;22.23;71.57
4814;BME280;15375;48.540;9.268;2023-09-19T09:29:49;97396.50;;;22.45;69.81
4814;BME280;15375;48.540;9.268;2023-09-19T09:32:28;97371.47;;;21.31;71.83
4814;BME280;15375;48.540;9.268;2023-09-19T09:34:59;97376.22;;;22.02;69.74
4814;BME280;15375;48.540;9.268;2023-09-19T09:37:26;97377.31;;;22.15;67.63
4814;BME280;15375;48.540;9.268;2023-09-19T09:39:55;97373.34;;;22.22;65.12
4814;BME280;15375;48.540;9.268;2023-09-19T09:42:36;97401.84;;;22.54;64.52
4814;BME280;15375;48.540;9.268;2023-09-19T09:45:23;97400.94;;;22.62;64.89
4814;BME280;15375;48.540;9.268;2023-09-19T09:47:58;97395.88;;;23.03;64.16
4814;BME280;15375;48.540;9.268;2023-09-19T09:50:26;97404.41;;;22.94;66.99
4814;BME280;15375;48.540;9.268;2023-09-19T09:53:02;97404.09;;;22.86;64.07
4814;BME280;15375;48.540;9.268;2023-09-19T09:56:01;97395.22;;;22.77;63.00
4814;BME280;15375;48.540;9.268;2023-09-19T09:58:40;97403.13;;;22.90;63.81
4814;BME280;15375;48.540;9.268;2023-09-19T10:01:14;97387.97;;;22.91;62.37
4814;BME280;15375;48.540;9.268;2023-09-19T10:03:43;97387.09;;;22.73;65.64
4814;BME280;15375;48.540;9.268;2023-09-19T10:06:11;97380.50;;;22.71;63.11
4814;BME280;15375;48.540;9.268;2023-09-19T10:09:09;97372.16;;;23.24;64.51
4814;BME280;15375;48.540;9.268;2023-09-19T10:11:44;97382.13;;;23.53;62.93
4814;BME280;15375;48.540;9.268;2023-09-19T10:14:15;97370.66;;;23.34;61.39
4814;BME280;15375;48.540;9.268;2023-09-19T10:16:51;97383.72;;;23.06;63.66
4814;BME280;15375;48.540;9.268;2023-09-19T10:19:30;97390.63;;;22.06;64.24
4814;BME280;15375;48.540;9.268;2023-09-19T10:22:00;97385.22;;;22.22;64.07
4814;BME280;15375;48.540;9.268;2023-09-19T10:24:28;97384.94;;;22.52;64.44
4814;BME280;15375;48.540;9.268;2023-09-19T10:26:53;97388.72;;;21.86;62.82
4814;BME280;15375;48.540;9.268;2023-09-19T10:29:21;97346.41;;;21.97;64.93
4814;BME280;15375;48.540;9.268;2023-09-19T10:31:52;97371.06;;;22.20;63.88
4814;BME280;15375;48.540;9.268;2023-09-19T10:34:19;97392.22;;;22.49;66.19
4814;BME280;15375;48.540;9.268;2023-09-19T10:36:46;97357.69;;;23.09;63.59
4814;BME280;15375;48.540;9.268;2023-09-19T10:39:15;97347.72;;;23.56;61.99
4814;BME280;15375;48.540;9.268;2023-09-19T10:41:50;97341.94;;;23.93;59.14
4814;BME280;15375;48.540;9.268;2023-09-19T10:44:21;97358.91;;;24.34;56.82
4814;BME280;15375;48.540;9.268;2023-09-19T10:46:49;97361.94;;;23.86;56.76
4814;BME280;15375;48.540;9.268;2023-09-19T10:49:14;97345.69;;;23.51;57.47
4814;BME280;15375;48.540;9.268;2023-09-19T10:51:42;97360.16;;;24.05;58.68
4814;BME280;15375;48.540;9.268;2023-09-19T10:54:11;97363.47;;;24.20;56.31
4814;BME280;15375;48.540;9.268;2023-09-19T10:56:48;97338.63;;;23.78;56.42
4814;BME280;15375;48.540;9.268;2023-09-19T10:59:16;97361.63;;;23.62;56.78
4814;BME280;15375;48.540;9.268;2023-09-19T11:01:50;97366.97;;;23.65;59.12
4814;BME280;15375;48.540;9.268;2023-09-19T11:24:28;97351.56;;;24.20;55.58
4814;BME280;15375;48.540;9.268;2023-09-19T11:27:15;97349.50;;;24.48;55.68
4814;BME280;15375;48.540;9.268;2023-09-19T11:29:42;97351.31;;;24.12;55.54
4814;BME280;15375;48.540;9.268;2023-09-19T11:32:07;97341.66;;;23.69;54.48
4814;BME280;15375;48.540;9.268;2023-09-19T11:34:39;97348.06;;;22.57;54.81
4814;BME280;15375;48.540;9.268;2023-09-19T11:40:24;97340.81;;;23.35;55.42
4814;BME280;15375;48.540;9.268;2023-09-19T11:42:46;97347.00;;;22.97;56.33
4814;BME280;15375;48.540;9.268;2023-09-19T11:48:13;97335.91;;;22.12;56.49
4814;BME280;15375;48.540;9.268;2023-09-19T11:50:42;97336.13;;;21.83;59.20
4814;BME280;15375;48.540;9.268;2023-09-19T11:53:10;97351.94;;;21.97;59.79
4814;BME280;15375;48.540;9.268;2023-09-19T11:55:38;97345.88;;;21.98;61.01
4814;BME280;15375;48.540;9.268;2023-09-19T11:58:04;97346.84;;;21.90;61.09
4814;BME280;15375;48.540;9.268;2023-09-19T12:00:30;97313.34;;;21.73;59.72
4814;BME280;15375;48.540;9.268;2023-09-19T12:02:57;97324.19;;;21.97;60.41
4814;BME280;15375;48.540;9.268;2023-09-19T12:05:30;97323.63;;;21.93;61.66
4814;BME280;15375;48.540;9.268;2023-09-19T12:07:58;97338.31;;;22.36;60.62
4814;BME280;15375;48.540;9.268;2023-09-19T12:10:24;97333.78;;;22.38;60.67
4814;BME280;15375;48.540;9.268;2023-09-19T12:12:49;97339.38;;;22.44;60.38
4814;BME280;15375;48.540;9.268;2023-09-19T12:15:16;97328.81;;;22.11;60.81
4814;BME280;15375;48.540;9.268;2023-09-19T12:17:47;97330.31;;;21.81;62.20
4814;BME280;15375;48.540;9.268;2023-09-19T12:20:14;97317.78;;;21.59;62.54
4814;BME280;15375;48.540;9.268;2023-09-19T12:22:44;97309.28;;;21.43;63.30
4814;BME280;15375;48.540;9.268;2023-09-19T12:25:11;97307.34;;;21.49;64.24
4814;BME280;15375;48.540;9.268;2023-09-19T12:27:48;97315.59;;;21.43;63.53
4814;BME280;15375;48.540;9.268;2023-09-19T12:30:15;97318.13;;;21.41;62.21
4814;BME280;15375;48.540;9.268;2023-09-19T12:32:43;97295.06;;;21.61;60.61
4814;BME280;15375;48.540;9.268;2023-09-19T12:35:10;97309.38;;;21.80;59.37
4814;BME280;15375;48.540;9.268;2023-09-19T12:37:45;97307.31;;;22.48;58.21
4814;BME280;15375;48.540;9.268;2023-09-19T12:40:13;97271.91;;;22.97;57.15
4814;BME280;15375;48.540;9.268;2023-09-19T12:42:48;97286.66;;;23.30;55.69
4814;BME280;15375;48.540;9.268;2023-09-19T12:45:14;97283.56;;;23.12;55.52
4814;BME280;15375;48.540;9.268;2023-09-19T12:51:09;97278.38;;;23.80;55.21
4814;BME280;15375;48.540;9.268;2023-09-19T12:53:39;97278.09;;;23.95;53.92
4814;BME280;15375;48.540;9.268;2023-09-19T12:56:08;97288.72;;;24.02;56.37
4814;BME280;15375;48.540;9.268;2023-09-19T12:58:57;97282.66;;;24.03;54.80
4814;BME280;15375;48.540;9.268;2023-09-19T13:01:28;97278.09;;;24.06;55.77
4814;BME280;15375;48.540;9.268;2023-09-19T13:04:17;97279.09;;;24.25;55.24
4814;BME280;15375;48.540;9.268;2023-09-19T13:06:50;97268.72;;;23.92;53.72
4814;BME280;15375;48.540;9.268;2023-09-19T13:09:17;97278.81;;;23.23;52.19
4814;BME280;15375;48.540;9.268;2023-09-19T13:11:43;97274.56;;;23.56;53.23
4814;BME280;15375;48.540;9.268;2023-09-19T13:14:28;97283.41;;;23.82;53.69
4814;BME280;15375;48.540;9.268;2023-09-19T13:17:06;97276.09;;;23.68;51.48
4814;BME280;15375;48.540;9.268;2023-09-19T13:19:43;97271.50;;;23.37;50.85
4814;BME280;15375;48.540;9.268;2023-09-19T13:25:35;97263.69;;;23.52;50.07
4814;BME280;15375;48.540;9.268;2023-09-19T13:28:01;97236.34;;;23.45;50.23
4814;BME280;15375;48.540;9.268;2023-09-19T13:30:29;97258.88;;;23.86;51.59
4814;BME280;15375;48.540;9.268;2023-09-19T13:33:08;97268.25;;;23.88;53.21
4814;BME280;15375;48.540;9.268;2023-09-19T13:35:34;97243.94;;;23.72;52.77
4814;BME280;15375;48.540;9.268;2023-09-19T13:38:01;97262.66;;;23.44;55.08
4814;BME280;15375;48.540;9.268;2023-09-19T13:40:27;97238.88;;;23.43;52.87
4814;BME280;15375;48.540;9.268;2023-09-19T13:42:56;97245.72;;;23.75;53.13
4814;BME280;15375;48.540;9.268;2023-09-19T13:45:21;97249.72;;;23.24;53.72
4814;BME280;15375;48.540;9.268;2023-09-19T13:47:49;97254.19;;;22.83;56.72
4814;BME280;15375;48.540;9.268;2023-09-19T13:50:15;97243.06;;;22.83;58.10
4814;BME280;15375;48.540;9.268;2023-09-19T13:52:40;97237.28;;;22.98;55.60
4814;BME280;15375;48.540;9.268;2023-09-19T13:55:06;97243.66;;;23.20;58.67